createdAt,value
2019-01-12T00:00:36.841Z,0.54
2019-01-12T00:03:08.846Z,0.55
2019-01-12T00:05:39.039Z,0.59
2019-01-12T00:08:09.393Z,0.59
2019-01-12T00:10:39.883Z,0.58
2019-01-12T00:13:10.102Z,0.62
2019-01-12T00:15:40.341Z,0.62
2019-01-12T00:18:10.972Z,0.61
2019-01-12T00:20:41.208Z,0.61
2019-01-12T00:23:11.545Z,0.60
2019-01-12T00:25:41.863Z,0.60
2019-01-12T00:28:12.144Z,0.63
2019-01-12T00:30:43.313Z,0.66
2019-01-12T00:33:14.584Z,0.65
2019-01-12T00:35:44.788Z,0.63
2019-01-12T00:38:15.060Z,0.60
2019-01-12T00:40:45.427Z,0.62
2019-01-12T00:43:16.751Z,0.63
2019-01-12T00:45:47.056Z,0.67
2019-01-12T00:48:17.282Z,0.66
2019-01-12T00:50:47.590Z,0.65
2019-01-12T00:53:17.869Z,0.62
2019-01-12T00:55:48.100Z,0.62
2019-01-12T00:58:18.543Z,0.62
2019-01-12T01:00:48.800Z,0.64
2019-01-12T01:03:19.040Z,0.66
2019-01-12T01:05:49.304Z,0.66
2019-01-12T01:08:19.846Z,0.64
2019-01-12T01:10:50.066Z,0.63
2019-01-12T01:13:20.602Z,0.62
2019-01-12T01:15:50.818Z,0.58
2019-01-12T01:18:21.227Z,0.56
2019-01-12T01:20:51.439Z,0.57
2019-01-12T01:23:21.722Z,0.58
2019-01-12T01:25:52.009Z,0.55
2019-01-12T01:28:22.171Z,0.54
2019-01-12T01:30:52.907Z,0.54
2019-01-12T01:33:27.908Z,0.55
2019-01-12T01:35:55.360Z,0.59
2019-01-12T01:38:25.608Z,0.62
2019-01-12T01:40:55.894Z,0.67
2019-01-12T01:43:26.179Z,0.68
2019-01-12T01:45:58.168Z,0.72
2019-01-12T01:48:28.375Z,0.78
2019-01-12T01:50:58.621Z,0.78
2019-01-12T01:53:28.844Z,0.76
2019-01-12T01:55:59.075Z,0.71
2019-01-12T01:58:29.355Z,0.71
2019-01-12T02:00:59.619Z,0.72
2019-01-12T02:03:29.883Z,0.75
2019-01-12T02:06:01.022Z,0.75
2019-01-12T02:08:31.263Z,0.75
2019-01-12T02:11:01.528Z,0.77
2019-01-12T02:13:31.807Z,0.75
2019-01-12T02:16:02.401Z,0.73
2019-01-12T02:18:32.656Z,0.74
2019-01-12T02:21:03.228Z,0.72
2019-01-12T02:23:33.410Z,0.73
2019-01-12T02:26:03.678Z,0.74
2019-01-12T02:28:33.968Z,0.76
2019-01-12T02:31:04.380Z,0.80
2019-01-12T02:33:34.604Z,0.80
2019-01-12T02:36:04.904Z,0.81
2019-01-12T02:38:35.159Z,0.83
2019-01-12T02:41:05.727Z,0.81
2019-01-12T02:43:36.026Z,0.81
2019-01-12T02:46:06.294Z,0.82
2019-01-12T02:48:36.546Z,0.81
2019-01-12T02:51:06.879Z,0.81
2019-01-12T02:53:37.137Z,0.81
2019-01-12T02:56:07.381Z,0.82
2019-01-12T02:58:37.662Z,0.82
2019-01-12T03:01:07.937Z,0.81
2019-01-12T03:03:38.293Z,0.82
2019-01-12T03:06:08.696Z,0.82
2019-01-12T03:08:39.049Z,0.81
2019-01-12T03:11:09.340Z,0.79
2019-01-12T03:13:39.996Z,0.80
2019-01-12T03:16:10.280Z,0.77
2019-01-12T03:18:40.768Z,0.76
2019-01-12T03:21:11.395Z,0.78
2019-01-12T03:23:41.757Z,0.77
2019-01-12T03:26:11.985Z,0.79
2019-01-12T03:28:42.191Z,0.79
2019-01-12T03:31:12.452Z,0.82
2019-01-12T03:33:42.873Z,0.84
2019-01-12T03:36:13.040Z,0.89
2019-01-12T03:38:43.260Z,0.86
2019-01-12T03:41:13.822Z,0.88
2019-01-12T03:43:44.041Z,0.90
2019-01-12T03:46:14.301Z,0.91
2019-01-12T03:48:44.493Z,0.90
2019-01-12T03:51:14.703Z,0.90
2019-01-12T03:53:44.972Z,0.91
2019-01-12T03:56:15.360Z,0.93
2019-01-12T03:58:45.608Z,0.95
2019-01-12T04:01:15.886Z,0.96
2019-01-12T04:03:46.162Z,0.98
2019-01-12T04:06:16.329Z,0.99
2019-01-12T04:08:46.588Z,0.99
2019-01-12T04:11:16.750Z,0.97
2019-01-12T04:13:47.046Z,0.98
2019-01-12T04:16:17.322Z,0.99
2019-01-12T04:18:47.526Z,0.97
2019-01-12T04:21:17.690Z,0.96
2019-01-12T04:23:47.948Z,0.97
2019-01-12T04:26:18.196Z,0.96
2019-01-12T04:28:48.472Z,0.97
2019-01-12T04:31:18.732Z,0.97
2019-01-12T04:33:48.951Z,0.98
2019-01-12T04:36:19.185Z,1.00
2019-01-12T04:38:49.673Z,1.02
2019-01-12T04:41:19.935Z,1.02
2019-01-12T04:43:50.214Z,1.02
2019-01-12T04:46:20.384Z,1.02
2019-01-12T04:48:50.562Z,1.03
2019-01-12T04:51:20.838Z,1.04
2019-01-12T04:53:51.173Z,1.10
2019-01-12T04:56:21.384Z,1.06
2019-01-12T04:58:51.647Z,1.05
2019-01-12T05:01:21.913Z,1.06
2019-01-12T05:03:52.339Z,1.05
2019-01-12T05:06:22.575Z,1.05
2019-01-12T05:08:52.786Z,1.05
2019-01-12T05:11:23.051Z,1.06
2019-01-12T05:13:53.332Z,1.06
2019-01-12T05:16:23.593Z,1.08
2019-01-12T05:18:54.032Z,1.11
2019-01-12T05:21:24.237Z,1.08
2019-01-12T05:23:54.486Z,1.10
2019-01-12T05:26:24.756Z,1.10
2019-01-12T05:28:55.366Z,1.12
2019-01-12T05:31:25.707Z,1.12
2019-01-12T05:33:55.908Z,1.13
2019-01-12T05:36:26.200Z,1.17
2019-01-12T05:38:56.386Z,1.18
2019-01-12T05:41:26.899Z,1.17
2019-01-12T05:43:57.198Z,1.16
2019-01-12T05:46:27.735Z,1.13
2019-01-12T05:48:57.944Z,1.16
2019-01-12T05:51:28.209Z,1.15
2019-01-12T05:53:58.476Z,1.11
2019-01-12T05:56:28.648Z,1.09
2019-01-12T05:58:59.258Z,1.09
2019-01-12T06:01:29.523Z,1.09
2019-01-12T06:03:59.794Z,1.09
2019-01-12T06:06:30.040Z,1.07
2019-01-12T06:09:00.337Z,1.11
2019-01-12T06:11:32.217Z,1.11
2019-01-12T06:14:02.519Z,1.11
2019-01-12T06:16:32.803Z,1.12
2019-01-12T06:19:03.061Z,1.12
2019-01-12T06:21:34.361Z,1.16
2019-01-12T06:24:05.673Z,1.16
2019-01-12T06:26:35.951Z,1.16
2019-01-12T06:29:06.221Z,1.16
2019-01-12T06:31:36.493Z,1.17
2019-01-12T06:34:06.796Z,1.20
2019-01-12T06:36:37.025Z,1.18
2019-01-12T06:39:09.937Z,1.20
2019-01-12T06:41:41.057Z,1.12
2019-01-12T06:44:11.325Z,1.13
2019-01-12T06:46:41.658Z,1.14
2019-01-12T06:49:11.907Z,1.17
2019-01-12T06:51:42.144Z,1.15
2019-01-12T06:54:12.542Z,1.18
2019-01-12T06:56:42.814Z,1.19
2019-01-12T06:59:13.092Z,1.17
2019-01-12T07:01:49.220Z,1.21
2019-01-12T07:04:19.499Z,1.22
2019-01-12T07:06:49.669Z,1.23
2019-01-12T07:09:19.892Z,1.25
2019-01-12T07:11:50.168Z,1.24
2019-01-12T07:14:20.444Z,1.25
2019-01-12T07:16:50.711Z,1.25
2019-01-12T07:19:21.081Z,1.25
2019-01-12T07:21:51.282Z,1.27
2019-01-12T07:24:21.867Z,1.25
2019-01-12T07:26:52.132Z,1.25
2019-01-12T07:29:23.350Z,1.27
2019-01-12T07:31:53.597Z,1.26
2019-01-12T07:34:23.920Z,1.27
2019-01-12T07:36:54.155Z,1.28
2019-01-12T07:39:24.433Z,1.33
2019-01-12T07:41:55.287Z,1.35
2019-01-12T07:44:32.716Z,1.36
2019-01-12T07:47:08.038Z,1.39
2019-01-12T07:49:38.381Z,1.42
2019-01-12T07:52:08.608Z,1.39
2019-01-12T07:54:40.105Z,1.43
2019-01-12T07:57:10.365Z,1.43
2019-01-12T07:59:40.616Z,1.46
2019-01-12T08:02:10.813Z,1.45
2019-01-12T08:04:41.112Z,1.48
2019-01-12T08:07:11.626Z,1.46
2019-01-12T08:09:43.050Z,1.50
2019-01-12T08:12:13.342Z,1.49
2019-01-12T08:14:45.846Z,1.50
2019-01-12T08:17:16.156Z,1.48
2019-01-12T08:19:46.741Z,1.56
2019-01-12T08:22:17.017Z,1.60
2019-01-12T08:24:47.354Z,1.63
2019-01-12T08:27:17.592Z,1.61
2019-01-12T08:29:47.877Z,1.62
2019-01-12T08:32:18.149Z,1.64
2019-01-12T08:34:48.518Z,1.68
2019-01-12T08:37:19.206Z,1.73
2019-01-12T08:39:49.529Z,1.78
2019-01-12T08:42:19.731Z,1.80
2019-01-12T08:44:51.038Z,1.82
2019-01-12T08:47:21.317Z,1.86
2019-01-12T08:49:51.591Z,1.93
2019-01-12T08:52:22.199Z,2.00
2019-01-12T08:54:52.432Z,2.04
2019-01-12T08:57:22.701Z,2.06
2019-01-12T08:59:52.916Z,2.07
2019-01-12T09:02:23.188Z,2.14
2019-01-12T09:04:53.394Z,2.07
2019-01-12T09:07:23.601Z,2.15
2019-01-12T09:09:54.196Z,2.17
2019-01-12T09:12:24.498Z,2.20
2019-01-12T09:14:55.132Z,2.24
2019-01-12T09:17:25.735Z,2.32
2019-01-12T09:19:55.994Z,2.37
2019-01-12T09:22:26.278Z,2.44
2019-01-12T09:24:56.612Z,2.53
2019-01-12T09:27:29.073Z,2.60
2019-01-12T09:29:59.659Z,2.65
2019-01-12T09:32:29.930Z,2.64
2019-01-12T09:35:00.242Z,2.63
2019-01-12T09:37:31.525Z,2.64
2019-01-12T09:40:01.792Z,2.72
2019-01-12T09:42:32.056Z,2.83
2019-01-12T09:45:02.342Z,2.93
2019-01-12T09:47:32.726Z,2.90
2019-01-12T09:50:03.095Z,3.12
2019-01-12T09:52:33.376Z,3.24
2019-01-12T09:55:03.826Z,3.27
2019-01-12T09:57:34.174Z,3.27
2019-01-12T10:00:07.720Z,3.27
2019-01-12T10:02:38.037Z,3.26
2019-01-12T10:05:09.565Z,3.24
2019-01-12T10:07:39.975Z,3.21
2019-01-12T10:10:13.352Z,3.31
2019-01-12T10:12:43.908Z,3.33
2019-01-12T10:15:14.583Z,3.35
2019-01-12T10:17:45.631Z,3.36
2019-01-12T10:20:17.544Z,3.36
2019-01-12T10:22:47.888Z,3.31
2019-01-12T10:25:18.581Z,3.28
2019-01-12T10:27:48.931Z,3.26
2019-01-12T10:30:21.684Z,3.33
2019-01-12T10:32:52.092Z,3.26
2019-01-12T10:35:22.364Z,3.34
2019-01-12T10:37:52.599Z,3.48
2019-01-12T10:40:22.917Z,3.48
2019-01-12T10:42:53.159Z,3.60
2019-01-12T10:45:24.787Z,3.81
2019-01-12T10:47:55.820Z,3.97
2019-01-12T10:50:31.547Z,3.93
2019-01-12T10:53:02.186Z,4.12
2019-01-12T10:55:32.455Z,4.27
2019-01-12T10:58:04.684Z,4.34
2019-01-12T11:00:36.930Z,4.39
2019-01-12T11:03:07.250Z,4.43
2019-01-12T11:05:37.481Z,4.45
2019-01-12T11:08:08.332Z,4.47
2019-01-12T11:10:39.081Z,4.49
2019-01-12T11:13:09.324Z,4.56
2019-01-12T11:15:39.535Z,4.55
2019-01-12T11:18:09.823Z,4.66
2019-01-12T11:20:40.176Z,4.84
2019-01-12T11:23:10.440Z,4.86
2019-01-12T11:25:42.986Z,5.17
2019-01-12T11:28:12.980Z,5.26
2019-01-12T11:30:46.127Z,5.36
2019-01-12T11:33:16.874Z,5.39
2019-01-12T11:35:48.257Z,5.54
2019-01-12T11:38:19.547Z,5.49
2019-01-12T11:40:49.829Z,5.60
2019-01-12T11:43:20.139Z,5.63
2019-01-12T11:45:50.780Z,5.61
2019-01-12T11:48:21.080Z,5.49
2019-01-12T11:50:51.389Z,5.55
2019-01-12T11:53:21.724Z,5.63
2019-01-12T11:55:52.022Z,5.62
2019-01-12T11:58:22.427Z,5.40
2019-01-12T12:00:52.992Z,5.31
2019-01-12T12:03:23.352Z,5.30
2019-01-12T12:05:53.609Z,5.27
2019-01-12T12:08:23.975Z,5.27
2019-01-12T12:10:54.215Z,5.24
2019-01-12T12:13:24.582Z,5.15
2019-01-12T12:15:55.148Z,5.10
2019-01-12T12:18:25.770Z,5.02
2019-01-12T12:20:56.060Z,4.99
2019-01-12T12:23:26.405Z,4.93
2019-01-12T12:25:56.607Z,4.92
2019-01-12T12:28:27.189Z,4.95
2019-01-12T12:30:57.445Z,4.98
2019-01-12T12:33:27.735Z,4.97
2019-01-12T12:35:58.069Z,5.01
2019-01-12T12:38:28.371Z,5.13
2019-01-12T12:40:58.676Z,5.25
2019-01-12T12:43:28.915Z,5.38
2019-01-12T12:46:00.476Z,5.61
2019-01-12T12:48:30.779Z,5.79
2019-01-12T12:51:01.432Z,5.92
2019-01-12T12:53:31.762Z,6.02
2019-01-12T12:56:02.006Z,6.20
2019-01-12T12:58:32.297Z,6.37
2019-01-12T13:01:02.576Z,6.27
2019-01-12T13:03:32.911Z,6.27
2019-01-12T13:06:03.205Z,5.99
2019-01-12T13:08:33.486Z,5.77
2019-01-12T13:11:03.751Z,5.71
2019-01-12T13:13:34.472Z,5.59
2019-01-12T13:16:05.003Z,5.47
2019-01-12T13:18:35.334Z,5.38
2019-01-12T13:21:05.697Z,5.35
2019-01-12T13:23:36.100Z,5.27
2019-01-12T13:26:06.307Z,5.17
2019-01-12T13:28:37.154Z,5.15
2019-01-12T13:31:07.374Z,5.14
2019-01-12T13:33:37.671Z,5.14
2019-01-12T13:36:10.095Z,5.14
2019-01-12T13:38:40.356Z,5.23
2019-01-12T13:41:10.632Z,5.27
2019-01-12T13:43:40.901Z,5.29
2019-01-12T13:46:11.275Z,5.33
2019-01-12T13:48:41.549Z,5.31
2019-01-12T13:51:11.825Z,5.33
2019-01-12T13:53:42.096Z,5.30
2019-01-12T13:56:12.427Z,5.33
2019-01-12T13:58:42.986Z,5.24
2019-01-12T14:01:13.240Z,5.02
2019-01-12T14:03:43.907Z,4.75
2019-01-12T14:06:14.200Z,4.64
2019-01-12T14:08:45.643Z,4.58
2019-01-12T14:11:15.909Z,4.59
2019-01-12T14:13:46.864Z,4.68
2019-01-12T14:16:17.070Z,4.79
2019-01-12T14:18:47.344Z,4.87
2019-01-12T14:21:17.946Z,4.99
2019-01-12T14:23:48.194Z,5.07
2019-01-12T14:26:18.459Z,5.11
2019-01-12T14:28:48.752Z,5.17
2019-01-12T14:31:19.016Z,5.20
2019-01-12T14:33:49.304Z,5.22
2019-01-12T14:36:19.918Z,5.22
2019-01-12T14:38:50.141Z,5.31
2019-01-12T14:41:20.415Z,5.22
2019-01-12T14:43:50.687Z,5.24
2019-01-12T14:46:20.870Z,5.22
2019-01-12T14:48:51.812Z,5.20
2019-01-12T14:51:22.062Z,5.17
2019-01-12T14:53:52.263Z,5.19
2019-01-12T14:56:22.538Z,5.19
2019-01-12T14:58:52.876Z,5.09
2019-01-12T15:01:23.217Z,5.03
2019-01-12T15:03:53.417Z,4.94
2019-01-12T15:06:23.755Z,4.95
2019-01-12T15:08:54.402Z,4.85
2019-01-12T15:11:24.790Z,4.83
2019-01-12T15:13:54.973Z,4.82
2019-01-12T15:16:25.428Z,4.78
2019-01-12T15:18:55.669Z,4.72
2019-01-12T15:21:25.986Z,4.59
2019-01-12T15:23:56.568Z,4.50
2019-01-12T15:26:26.846Z,4.39
2019-01-12T15:28:57.087Z,4.25
2019-01-12T15:31:27.524Z,4.18
2019-01-12T15:33:58.075Z,4.13
2019-01-12T15:36:28.263Z,4.10
2019-01-12T15:39:01.747Z,4.04
2019-01-12T15:41:32.381Z,4.02
2019-01-12T15:44:02.611Z,4.05
2019-01-12T15:46:32.819Z,4.03
2019-01-12T15:49:03.058Z,4.05
2019-01-12T15:51:33.262Z,4.06
2019-01-12T15:54:03.498Z,4.07
2019-01-12T15:56:33.718Z,4.03
2019-01-12T15:59:03.941Z,3.99
2019-01-12T16:01:34.165Z,4.03
2019-01-12T16:04:04.387Z,4.03
2019-01-12T16:06:34.642Z,4.02
2019-01-12T16:09:07.651Z,4.09
2019-01-12T16:11:38.168Z,4.12
2019-01-12T16:14:08.425Z,4.10
2019-01-12T16:16:38.662Z,4.14
2019-01-12T16:19:08.944Z,4.14
2019-01-12T16:21:39.228Z,4.18
2019-01-12T16:24:09.460Z,4.15
2019-01-12T16:26:39.660Z,4.18
2019-01-12T16:29:09.991Z,4.22
2019-01-12T16:31:40.560Z,4.24
2019-01-12T16:34:11.083Z,4.28
2019-01-12T16:36:41.384Z,4.31
2019-01-12T16:39:11.601Z,4.31
2019-01-12T16:41:41.918Z,4.32
2019-01-12T16:44:12.192Z,4.35
2019-01-12T16:46:42.480Z,4.36
2019-01-12T16:49:12.755Z,4.35
2019-01-12T16:51:42.990Z,4.34
2019-01-12T16:54:13.389Z,4.40
2019-01-12T16:56:44.016Z,4.40
2019-01-12T16:59:14.214Z,4.45
2019-01-12T17:01:44.462Z,4.46
2019-01-12T17:04:14.786Z,4.45
2019-01-12T17:06:45.102Z,4.46
2019-01-12T17:09:15.306Z,4.44
2019-01-12T17:11:45.986Z,4.46
2019-01-12T17:14:16.253Z,4.50
2019-01-12T17:16:46.586Z,4.57
2019-01-12T17:19:17.306Z,4.55
2019-01-12T17:21:47.564Z,4.55
2019-01-12T17:24:17.840Z,4.52
2019-01-12T17:26:48.099Z,4.55
2019-01-12T17:29:18.325Z,4.60
2019-01-12T17:31:48.929Z,4.68
2019-01-12T17:34:19.459Z,4.73
2019-01-12T17:36:49.929Z,4.68
2019-01-12T17:39:20.159Z,4.69
2019-01-12T17:41:50.442Z,4.76
2019-01-12T17:44:21.309Z,4.69
2019-01-12T17:46:51.660Z,4.72
2019-01-12T17:49:21.919Z,4.78
2019-01-12T17:51:52.145Z,4.78
2019-01-12T17:54:22.950Z,4.78
2019-01-12T17:56:53.252Z,4.77
2019-01-12T17:59:23.607Z,4.81
2019-01-12T18:01:53.963Z,4.77
2019-01-12T18:04:24.169Z,4.75
2019-01-12T18:06:54.411Z,4.84
2019-01-12T18:09:24.699Z,4.85
2019-01-12T18:11:54.941Z,4.84
2019-01-12T18:14:25.200Z,4.83
2019-01-12T18:16:55.511Z,4.83
2019-01-12T18:19:25.782Z,4.76
2019-01-12T18:21:56.152Z,4.83
2019-01-12T18:24:31.344Z,4.85
2019-01-12T18:27:01.582Z,4.88
2019-01-12T18:29:32.168Z,4.94
2019-01-12T18:32:02.438Z,4.98
2019-01-12T18:34:32.736Z,4.93
2019-01-12T18:37:02.979Z,4.90
2019-01-12T18:39:33.381Z,4.97
2019-01-12T18:42:04.294Z,4.96
2019-01-12T18:44:34.605Z,5.03
2019-01-12T18:47:04.917Z,5.02
2019-01-12T18:49:35.360Z,4.99
2019-01-12T18:52:05.684Z,4.97
2019-01-12T18:54:36.290Z,4.97
2019-01-12T18:57:06.553Z,4.93
2019-01-12T18:59:36.785Z,4.97
2019-01-12T19:02:07.174Z,4.92
2019-01-12T19:04:37.440Z,4.98
2019-01-12T19:07:07.738Z,5.01
2019-01-12T19:09:38.407Z,5.04
2019-01-12T19:12:09.195Z,5.02
2019-01-12T19:14:39.464Z,4.95
2019-01-12T19:17:10.198Z,4.90
2019-01-12T19:19:40.491Z,4.83
2019-01-12T19:22:11.151Z,4.70
2019-01-12T19:24:41.513Z,4.51
2019-01-12T19:27:11.803Z,4.46
2019-01-12T19:29:42.181Z,4.41
2019-01-12T19:32:12.481Z,4.41
2019-01-12T19:34:42.770Z,4.41
2019-01-12T19:37:13.048Z,4.40
2019-01-12T19:39:43.376Z,4.29
2019-01-12T19:42:13.616Z,4.30
2019-01-12T19:44:44.865Z,4.23
2019-01-12T19:47:15.253Z,4.21
2019-01-12T19:49:45.544Z,4.26
2019-01-12T19:52:16.854Z,4.27
2019-01-12T19:54:47.126Z,4.27
2019-01-12T19:57:17.358Z,4.29
2019-01-12T19:59:47.730Z,4.31
2019-01-12T20:02:18.053Z,4.31
2019-01-12T20:04:48.387Z,4.31
2019-01-12T20:07:18.769Z,4.26
2019-01-12T20:09:49.066Z,4.32
2019-01-12T20:12:19.303Z,4.33
2019-01-12T20:14:49.621Z,4.33
2019-01-12T20:17:19.860Z,4.34
2019-01-12T20:19:50.154Z,4.29
2019-01-12T20:22:20.612Z,4.36
2019-01-12T20:24:50.898Z,4.40
2019-01-12T20:27:21.176Z,4.43
2019-01-12T20:29:51.479Z,4.41
2019-01-12T20:33:20.754Z,4.34
2019-01-12T20:36:50.263Z,4.27
2019-01-12T20:39:58.122Z,4.20
2019-01-12T20:43:02.424Z,4.15
2019-01-12T20:46:28.960Z,4.12
2019-01-12T20:49:08.124Z,4.10
2019-01-12T20:52:15.398Z,4.08
2019-01-12T20:55:17.346Z,4.08
2019-01-12T20:58:26.378Z,4.08
2019-01-12T21:01:33.392Z,4.02
2019-01-12T21:04:32.637Z,4.03
2019-01-12T21:07:43.879Z,3.95
2019-01-12T21:10:48.401Z,3.93
2019-01-12T21:14:03.149Z,3.86
2019-01-12T21:16:43.129Z,3.85
2019-01-12T21:19:13.461Z,3.86
2019-01-12T21:21:44.679Z,3.89
2019-01-12T21:24:14.991Z,3.91
2019-01-12T21:26:45.301Z,3.91
2019-01-12T21:29:16.628Z,3.85
2019-01-12T21:31:46.922Z,3.88
2019-01-12T21:34:17.239Z,3.81
2019-01-12T21:36:47.489Z,3.81
2019-01-12T21:39:17.725Z,3.81
2019-01-12T21:41:48.183Z,3.88
2019-01-12T21:44:18.389Z,3.92
2019-01-12T21:46:48.677Z,3.96
2019-01-12T21:49:19.239Z,3.99
2019-01-12T21:51:49.520Z,3.95
2019-01-12T21:54:19.823Z,3.88
2019-01-12T21:56:50.043Z,3.97
2019-01-12T21:59:20.324Z,4.01
2019-01-12T22:01:50.687Z,4.05
2019-01-12T22:04:21.136Z,4.08
2019-01-12T22:06:51.377Z,4.13
2019-01-12T22:09:21.602Z,4.15
2019-01-12T22:11:51.841Z,4.17
2019-01-12T22:14:22.115Z,4.18
2019-01-12T22:16:52.722Z,4.23
2019-01-12T22:19:23.079Z,4.22
2019-01-12T22:21:53.448Z,4.21
2019-01-12T22:24:23.771Z,4.20
2019-01-12T22:26:54.014Z,4.26
2019-01-12T22:29:24.262Z,4.33
2019-01-12T22:31:54.547Z,4.34
2019-01-12T22:34:24.821Z,4.30
2019-01-12T22:36:55.095Z,4.32
2019-01-12T22:39:25.363Z,4.35
2019-01-12T22:41:55.641Z,4.39
2019-01-12T22:44:25.950Z,4.47
2019-01-12T22:46:56.201Z,4.43
2019-01-12T22:49:26.460Z,4.40
2019-01-12T22:51:56.728Z,4.51
2019-01-12T22:54:27.082Z,4.58
2019-01-12T22:56:57.388Z,4.63
2019-01-12T22:59:27.662Z,4.61
2019-01-12T23:02:03.887Z,4.62
2019-01-12T23:04:36.055Z,4.65
2019-01-12T23:07:11.371Z,4.64
2019-01-12T23:09:40.113Z,4.57
2019-01-12T23:12:11.101Z,4.60
2019-01-12T23:14:41.379Z,4.56
2019-01-12T23:17:11.744Z,4.58
2019-01-12T23:19:42.026Z,4.62
2019-01-12T23:22:13.370Z,4.59
2019-01-12T23:24:43.592Z,4.62
2019-01-12T23:27:13.891Z,4.65
2019-01-12T23:29:44.141Z,4.66
2019-01-12T23:32:14.454Z,4.74
2019-01-12T23:34:44.798Z,4.72
2019-01-12T23:37:15.075Z,4.68
2019-01-12T23:39:45.377Z,4.64
2019-01-12T23:42:15.620Z,4.59
2019-01-12T23:44:45.882Z,4.69
2019-01-12T23:47:16.194Z,4.66
2019-01-12T23:49:46.577Z,4.75
2019-01-12T23:52:16.828Z,4.83
2019-01-12T23:54:47.144Z,4.82
2019-01-12T23:57:17.370Z,4.83
2019-01-12T23:59:47.910Z,4.82
